Time,TemperatureF,DewpointF,PressureIn,WindDirection,WindDirectionDegrees,WindSpeedMPH,WindSpeedGustMPH,Humidity,HourlyPrecipIn,Conditions,Clouds,dailyrainin,SolarRadiationWatts/m^2,SoftwareType,DateUTC
2013-02-18 00:03:00,75.8,69.0,30.04,East,90,0.0,8.0,79,0.00,,,0.00,0,weatherlink.com 1.10,2013-02-18 04:03:00,
2013-02-18 00:18:00,75.7,69.0,30.04,ESE,110,2.0,8.0,79,0.00,,,0.00,0,weatherlink.com 1.10,2013-02-18 04:18:00,
2013-02-18 00:34:00,75.5,69.0,30.03,SE,129,2.0,7.0,80,0.00,,,0.00,0,weatherlink.com 1.10,2013-02-18 04:34:00,
2013-02-18 00:49:00,75.4,69.0,30.03,SE,128,4.0,4.0,80,0.00,,,0.00,0,weatherlink.com 1.10,2013-02-18 04:49:00,
2013-02-18 01:03:00,75.3,69.0,30.03,SE,128,4.0,5.0,80,0.00,,,0.00,0,weatherlink.com 1.10,2013-02-18 05:03:00,
2013-02-18 01:18:00,75.0,68.0,30.03,SE,128,0.0,3.0,80,0.00,,,0.00,0,weatherlink.com 1.10,2013-02-18 05:18:00,
2013-02-18 01:33:00,74.6,68.0,30.02,SE,128,0.0,1.0,81,0.00,,,0.00,0,weatherlink.com 1.10,2013-02-18 05:33:00,
2013-02-18 01:49:00,74.2,68.0,30.02,SE,128,0.0,3.0,82,0.00,,,0.00,0,weatherlink.com 1.10,2013-02-18 05:49:00,
2013-02-18 02:03:00,74.0,69.0,30.02,SE,128,0.0,3.0,83,0.00,,,0.00,0,weatherlink.com 1.10,2013-02-18 06:03:00,
2013-02-18 02:18:00,74.0,69.0,30.01,SE,128,3.0,4.0,83,0.00,,,0.00,0,weatherlink.com 1.10,2013-02-18 06:18:00,
2013-02-18 02:33:00,74.3,69.0,30.01,ESE,104,4.0,6.0,83,0.00,,,0.00,0,weatherlink.com 1.10,2013-02-18 06:33:00,
2013-02-18 02:49:00,74.4,69.0,30.01,ESE,104,1.0,5.0,83,0.00,,,0.00,0,weatherlink.com 1.10,2013-02-18 06:49:00,
2013-02-18 03:03:00,74.3,69.0,30.01,ESE,104,1.0,6.0,83,0.00,,,0.00,0,weatherlink.com 1.10,2013-02-18 07:03:00,
2013-02-18 03:18:00,74.0,69.0,30.01,ESE,104,0.0,1.0,83,0.00,,,0.00,0,weatherlink.com 1.10,2013-02-18 07:18:00,
2013-02-18 03:34:00,73.4,68.0,30.01,ESE,104,0.0,1.0,84,0.00,,,0.00,0,weatherlink.com 1.10,2013-02-18 07:34:00,
2013-02-18 03:49:00,73.1,68.0,30.01,ESE,104,0.0,1.0,85,0.00,,,0.00,0,weatherlink.com 1.10,2013-02-18 07:49:00,
2013-02-18 04:04:00,72.8,68.0,30.01,ESE,104,0.0,0.0,85,0.00,,,0.00,0,weatherlink.com 1.10,2013-02-18 08:04:00,
2013-02-18 04:19:00,72.7,68.0,30.01,ESE,104,0.0,1.0,86,0.00,,,0.00,0,weatherlink.com 1.10,2013-02-18 08:19:00,
2013-02-18 04:34:00,72.5,68.0,30.02,ESE,104,0.0,1.0,86,0.00,,,0.00,0,weatherlink.com 1.10,2013-02-18 08:34:00,
2013-02-18 04:49:00,72.3,68.0,30.02,ESE,104,0.0,0.0,86,0.00,,,0.00,0,weatherlink.com 1.10,2013-02-18 08:49:00,
2013-02-18 05:04:00,72.6,69.0,30.03,ESE,104,0.0,0.0,88,0.00,,,0.00,0,weatherlink.com 1.10,2013-02-18 09:04:00,
2013-02-18 05:19:00,72.5,69.0,30.03,ESE,104,0.0,1.0,88,0.00,,,0.00,0,weatherlink.com 1.10,2013-02-18 09:19:00,
2013-02-18 05:34:00,72.4,69.0,30.03,ESE,104,0.0,1.0,88,0.00,,,0.00,0,weatherlink.com 1.10,2013-02-18 09:34:00,
2013-02-18 06:04:00,71.7,68.0,30.04,ESE,104,0.0,0.0,88,0.00,,,0.00,0,weatherlink.com 1.10,2013-02-18 10:04:00,
2013-02-18 06:19:00,71.5,68.0,30.04,ESE,104,0.0,1.0,89,0.00,,,0.00,0,weatherlink.com 1.10,2013-02-18 10:19:00,
2013-02-18 06:34:00,71.6,69.0,30.05,ESE,104,0.0,1.0,90,0.00,,,0.00,0,weatherlink.com 1.10,2013-02-18 10:34:00,
2013-02-18 06:49:00,71.5,68.0,30.05,ESE,104,0.0,1.0,89,0.00,,,0.00,0,weatherlink.com 1.10,2013-02-18 10:49:00,
2013-02-18 07:04:00,71.6,69.0,30.07,ESE,104,0.0,1.0,90,0.00,,,0.00,12,weatherlink.com 1.10,2013-02-18 11:04:00,
2013-02-18 07:19:00,71.7,69.0,30.07,ESE,104,0.0,1.0,90,0.00,,,0.00,35,weatherlink.com 1.10,2013-02-18 11:19:00,
2013-02-18 07:34:00,72.0,69.0,30.07,ESE,104,0.0,1.0,90,0.00,,,0.00,95,weatherlink.com 1.10,2013-02-18 11:34:00,
2013-02-18 07:49:00,72.8,70.0,30.08,ESE,104,0.0,2.0,89,0.00,,,0.00,160,weatherlink.com 1.10,2013-02-18 11:49:00,
2013-02-18 08:04:00,73.3,70.0,30.08,ESE,104,1.0,1.0,88,0.00,,,0.00,102,weatherlink.com 1.10,2013-02-18 12:04:00,
2013-02-18 08:19:00,74.0,70.0,30.09,ESE,104,0.0,2.0,87,0.00,,,0.00,76,weatherlink.com 1.10,2013-02-18 12:19:00,
2013-02-18 08:34:00,74.6,70.0,30.09,ESE,104,1.0,2.0,86,0.00,,,0.00,155,weatherlink.com 1.10,2013-02-18 12:34:00,
2013-02-18 08:49:00,75.2,70.0,30.09,ESE,104,0.0,2.0,84,0.00,,,0.00,128,weatherlink.com 1.10,2013-02-18 12:49:00,
2013-02-18 09:04:00,76.6,71.0,30.10,ENE,61,1.0,7.0,83,0.00,,,0.00,223,weatherlink.com 1.10,2013-02-18 13:04:00,
2013-02-18 09:19:00,79.5,72.0,30.10,East,88,3.0,11.0,77,0.00,,,0.00,251,weatherlink.com 1.10,2013-02-18 13:19:00,
2013-02-18 09:34:00,79.9,71.0,30.11,ENE,63,4.0,13.0,75,0.00,,,0.00,269,weatherlink.com 1.10,2013-02-18 13:34:00,
2013-02-18 09:49:00,80.3,72.0,30.11,ENE,71,7.0,14.0,75,0.00,,,0.00,334,weatherlink.com 1.10,2013-02-18 13:49:00,
2013-02-18 10:20:00,82.0,71.0,30.11,East,84,10.0,16.0,70,0.00,,,0.00,761,weatherlink.com 1.10,2013-02-18 14:20:00,
2013-02-18 10:35:00,82.3,72.0,30.11,ENE,75,7.0,15.0,71,0.00,,,0.00,833,weatherlink.com 1.10,2013-02-18 14:35:00,
2013-02-18 10:50:00,82.1,72.0,30.11,East,84,14.0,18.0,71,0.00,,,0.00,311,weatherlink.com 1.10,2013-02-18 14:50:00,
2013-02-18 11:04:00,81.6,72.0,30.10,ENE,64,5.0,15.0,73,0.00,,,0.00,401,weatherlink.com 1.10,2013-02-18 15:04:00,
2013-02-18 11:20:00,81.7,72.0,30.10,East,84,1.0,12.0,72,0.00,,,0.00,383,weatherlink.com 1.10,2013-02-18 15:20:00,
2013-02-18 11:35:00,81.8,72.0,30.10,ENE,61,5.0,11.0,73,0.00,,,0.00,399,weatherlink.com 1.10,2013-02-18 15:35:00,
2013-02-18 11:50:00,82.0,73.0,30.09,ENE,62,7.0,13.0,73,0.00,,,0.00,279,weatherlink.com 1.10,2013-02-18 15:50:00,
2013-02-18 12:05:00,81.7,73.0,30.09,East,84,6.0,11.0,75,0.00,,,0.00,494,weatherlink.com 1.10,2013-02-18 16:05:00,
2013-02-18 12:20:00,81.5,72.0,30.08,NE,51,11.0,15.0,72,0.00,,,0.00,338,weatherlink.com 1.10,2013-02-18 16:20:00,
2013-02-18 12:36:00,81.6,71.0,30.08,NE,49,8.0,17.0,71,0.00,,,0.00,441,weatherlink.com 1.10,2013-02-18 16:36:00,
2013-02-18 12:50:00,82.4,73.0,30.07,ENE,65,9.0,13.0,72,0.00,,,0.00,752,weatherlink.com 1.10,2013-02-18 16:50:00,
2013-02-18 13:05:00,83.6,73.0,30.07,East,92,11.0,15.0,70,0.00,,,0.00,939,weatherlink.com 1.10,2013-02-18 17:05:00,
2013-02-18 13:20:00,82.9,73.0,30.06,ENE,65,11.0,16.0,71,0.00,,,0.00,529,weatherlink.com 1.10,2013-02-18 17:20:00,
2013-02-18 13:35:00,83.2,72.0,30.05,NNE,30,5.0,18.0,69,0.00,,,0.00,369,weatherlink.com 1.10,2013-02-18 17:35:00,
2013-02-18 13:50:00,82.5,72.0,30.05,NE,51,6.0,18.0,70,0.00,,,0.00,350,weatherlink.com 1.10,2013-02-18 17:50:00,
2013-02-18 14:20:00,83.4,72.0,30.04,NE,53,7.0,18.0,69,0.00,,,0.00,858,weatherlink.com 1.10,2013-02-18 18:20:00,
2013-02-18 14:35:00,84.1,72.0,30.04,ENE,72,10.0,18.0,67,0.00,,,0.00,733,weatherlink.com 1.10,2013-02-18 18:35:00,
2013-02-18 14:50:00,83.9,73.0,30.03,ENE,67,5.0,14.0,69,0.00,,,0.00,735,weatherlink.com 1.10,2013-02-18 18:50:00,
2013-02-18 15:05:00,83.7,73.0,30.03,ENE,64,8.0,15.0,69,0.00,,,0.00,559,weatherlink.com 1.10,2013-02-18 19:05:00,
2013-02-18 15:20:00,83.2,72.0,30.02,ENE,65,8.0,16.0,69,0.00,,,0.00,615,weatherlink.com 1.10,2013-02-18 19:20:00,
2013-02-18 15:35:00,83.5,72.0,30.02,East,82,10.0,14.0,68,0.00,,,0.00,366,weatherlink.com 1.10,2013-02-18 19:35:00,
2013-02-18 15:50:00,83.1,72.0,30.02,ENE,76,5.0,13.0,69,0.00,,,0.00,283,weatherlink.com 1.10,2013-02-18 19:50:00,
2013-02-18 16:05:00,81.9,72.0,30.02,ENE,63,9.0,14.0,72,0.00,,,0.00,223,weatherlink.com 1.10,2013-02-18 20:05:00,
2013-02-18 16:20:00,81.6,72.0,30.01,ENE,60,7.0,14.0,73,0.00,,,0.00,218,weatherlink.com 1.10,2013-02-18 20:20:00,
2013-02-18 16:35:00,81.4,72.0,30.02,NE,50,8.0,16.0,73,0.00,,,0.00,195,weatherlink.com 1.10,2013-02-18 20:35:00,
2013-02-18 16:50:00,80.9,71.0,30.02,ENE,71,8.0,16.0,72,0.00,,,0.00,183,weatherlink.com 1.10,2013-02-18 20:50:00,
2013-02-18 17:05:00,80.4,72.0,30.02,ENE,78,13.0,19.0,75,0.00,,,0.00,116,weatherlink.com 1.10,2013-02-18 21:05:00,
2013-02-18 17:20:00,79.7,71.0,30.03,ENE,74,9.0,18.0,75,0.00,,,0.00,76,weatherlink.com 1.10,2013-02-18 21:20:00,
2013-02-18 17:35:00,79.5,71.0,30.03,East,84,7.0,18.0,76,0.00,,,0.00,67,weatherlink.com 1.10,2013-02-18 21:35:00,
2013-02-18 17:50:00,79.1,71.0,30.03,NE,40,7.0,17.0,77,0.00,,,0.00,42,weatherlink.com 1.10,2013-02-18 21:50:00,
2013-02-18 18:05:00,79.0,72.0,30.03,ENE,69,10.0,16.0,78,0.00,,,0.00,21,weatherlink.com 1.10,2013-02-18 22:05:00,
2013-02-18 18:20:00,78.6,70.0,30.03,ENE,65,16.0,18.0,76,0.00,,,0.00,7,weatherlink.com 1.10,2013-02-18 22:20:00,
2013-02-18 18:35:00,78.5,71.0,30.03,ENE,57,10.0,14.0,78,0.00,,,0.00,0,weatherlink.com 1.10,2013-02-18 22:35:00,
2013-02-18 18:50:00,78.3,71.0,30.04,ENE,78,9.0,15.0,77,0.00,,,0.00,0,weatherlink.com 1.10,2013-02-18 22:50:00,
2013-02-18 19:05:00,78.2,71.0,30.04,ENE,60,10.0,18.0,78,0.00,,,0.00,0,weatherlink.com 1.10,2013-02-18 23:05:00,
2013-02-18 19:20:00,78.1,70.0,30.04,ENE,70,5.0,15.0,77,0.00,,,0.00,0,weatherlink.com 1.10,2013-02-18 23:20:00,
2013-02-18 19:35:00,78.1,70.0,30.05,ENE,67,7.0,18.0,77,0.00,,,0.00,0,weatherlink.com 1.10,2013-02-18 23:35:00,
2013-02-18 19:50:00,78.2,71.0,30.05,East,88,13.0,14.0,78,0.00,,,0.00,0,weatherlink.com 1.10,2013-02-18 23:50:00,
2013-02-18 20:05:00,78.3,71.0,30.05,ENE,71,11.0,17.0,79,0.00,,,0.00,0,weatherlink.com 1.10,2013-02-19 00:05:00,
2013-02-18 20:20:00,78.1,71.0,30.05,ENE,59,9.0,21.0,78,0.00,,,0.00,0,weatherlink.com 1.10,2013-02-19 00:20:00,
2013-02-18 20:35:00,78.2,71.0,30.05,ENE,74,12.0,17.0,78,0.00,,,0.00,0,weatherlink.com 1.10,2013-02-19 00:35:00,
2013-02-18 20:50:00,78.1,70.0,30.05,ENE,69,8.0,17.0,77,0.00,,,0.00,0,weatherlink.com 1.10,2013-02-19 00:50:00,
2013-02-18 21:05:00,78.2,71.0,30.06,ENE,60,8.0,16.0,78,0.00,,,0.00,0,weatherlink.com 1.10,2013-02-19 01:05:00,
2013-02-18 21:20:00,78.2,71.0,30.06,East,82,8.0,16.0,78,0.00,,,0.00,0,weatherlink.com 1.10,2013-02-19 01:20:00,
2013-02-18 21:35:00,78.0,71.0,30.07,ENE,58,7.0,16.0,78,0.00,,,0.00,0,weatherlink.com 1.10,2013-02-19 01:35:00,
2013-02-18 21:50:00,78.0,70.0,30.07,East,92,15.0,16.0,77,0.00,,,0.00,0,weatherlink.com 1.10,2013-02-19 01:50:00,
2013-02-18 22:05:00,78.0,70.0,30.07,ENE,77,8.0,16.0,77,0.00,,,0.00,0,weatherlink.com 1.10,2013-02-19 02:05:00,
2013-02-18 22:20:00,77.9,70.0,30.07,East,84,7.0,22.0,77,0.00,,,0.00,0,weatherlink.com 1.10,2013-02-19 02:20:00,
2013-02-18 22:35:00,77.8,71.0,30.08,ENE,59,10.0,18.0,79,0.00,,,0.00,0,weatherlink.com 1.10,2013-02-19 02:35:00,
2013-02-18 22:50:00,77.7,71.0,30.07,NE,52,6.0,18.0,79,0.00,,,0.00,0,weatherlink.com 1.10,2013-02-19 02:50:00,
2013-02-18 23:05:00,77.7,71.0,30.07,East,88,11.0,14.0,80,0.00,,,0.00,0,weatherlink.com 1.10,2013-02-19 03:05:00,
2013-02-18 23:20:00,77.7,71.0,30.07,East,84,13.0,15.0,81,0.00,,,0.00,0,weatherlink.com 1.10,2013-02-19 03:20:00,
2013-02-18 23:35:00,77.6,71.0,30.07,East,82,6.0,19.0,79,0.00,,,0.00,0,weatherlink.com 1.10,2013-02-19 03:35:00,
2013-02-18 23:50:00,77.5,71.0,30.07,ENE,60,2.0,19.0,79,0.00,,,0.00,0,weatherlink.com 1.10,2013-02-19 03:50:00,